Time;durP1;ratioP1;P1;durP2;ratioP2;P2;SDS_P1;SDS_P2;PMS_P1;PMS_P2;Temp;Humidity;BMP_temperature;BMP_pressure;BME280_temperature;BME280_humidity;BME280_pressure;Samples;Min_cycle;Max_cycle;Signal;HPM_P1;HPM_P2
2023/01/25 00:01:31;;;;;;;50.00;22.00;;;0.70;99.90;;;;;;5015343;28;20060;-65
2023/01/25 00:03:57;;;;;;;49.20;22.08;;;0.70;99.90;;;;;;5015561;28;20041;-65
2023/01/25 00:06:23;;;;;;;47.53;22.23;;;0.70;99.90;;;;;;5017895;28;20604;-65
2023/01/25 00:08:51;;;;;;;50.22;23.35;;;0.70;99.90;;;;;;5005963;28;20121;-65
2023/01/25 00:11:18;;;;;;;48.25;22.90;;;0.70;99.90;;;;;;5020561;28;20053;-65
2023/01/25 00:13:44;;;;;;;46.92;21.95;;;0.60;99.90;;;;;;5024234;28;20037;-65
2023/01/25 00:16:10;;;;;;;47.20;22.83;;;0.60;99.90;;;;;;5025334;28;20831;-65
2023/01/25 00:18:35;;;;;;;44.15;21.75;;;0.50;99.90;;;;;;5025553;28;20041;-65
2023/01/25 00:21:19;;;;;;;47.45;21.02;;;0.60;99.90;;;;;;5021433;28;20041;-65
2023/01/25 00:23:45;;;;;;;44.58;20.90;;;0.60;99.90;;;;;;5019512;28;20029;-65
2023/01/25 00:26:11;;;;;;;48.72;20.42;;;0.50;99.90;;;;;;5020992;28;20061;-65
2023/01/25 00:28:36;;;;;;;48.45;20.95;;;0.50;99.90;;;;;;5026540;28;20128;-65
2023/01/25 00:31:03;;;;;;;50.22;20.90;;;0.50;99.90;;;;;;5025853;28;20555;-65
2023/01/25 00:33:51;;;;;;;44.42;21.63;;;0.50;99.90;;;;;;5033690;28;20155;-65
2023/01/25 00:36:25;;;;;;;50.47;23.05;;;0.50;99.90;;;;;;5025629;28;20397;-65
2023/01/25 00:38:52;;;;;;;52.78;23.55;;;0.50;99.90;;;;;;5023789;28;20056;-65
2023/01/25 00:41:18;;;;;;;51.47;21.75;;;0.50;99.90;;;;;;5027098;28;20042;-66
2023/01/25 00:43:43;;;;;;;49.28;22.15;;;0.50;99.90;;;;;;5017413;28;20038;-65
2023/01/25 00:46:13;;;;;;;48.90;23.75;;;0.50;99.90;;;;;;5017892;28;20037;-65
2023/01/25 00:48:39;;;;;;;50.65;21.80;;;0.40;99.90;;;;;;5032778;28;20042;-65
2023/01/25 00:51:04;;;;;;;48.65;22.10;;;0.40;99.90;;;;;;5029485;28;20045;-65
2023/01/25 00:53:30;;;;;;;49.00;22.10;;;0.40;99.90;;;;;;5028459;28;20500;-65
2023/01/25 00:55:55;;;;;;;52.15;22.08;;;0.40;99.90;;;;;;5027641;28;20478;-65
2023/01/25 00:58:21;;;;;;;49.92;23.08;;;0.50;99.90;;;;;;5031931;28;20045;-66
2023/01/25 01:00:46;;;;;;;51.78;21.65;;;0.40;99.90;;;;;;5023914;28;20431;-65
2023/01/25 01:03:12;;;;;;;48.78;21.92;;;0.40;99.90;;;;;;5019124;28;20033;-65
2023/01/25 01:05:38;;;;;;;51.55;22.20;;;0.40;99.90;;;;;;5018701;28;20040;-65
2023/01/25 01:08:03;;;;;;;48.70;21.90;;;0.40;99.90;;;;;;5024941;28;20049;-65
2023/01/25 01:10:29;;;;;;;51.88;21.75;;;0.40;99.90;;;;;;5025268;28;20057;-65
2023/01/25 01:12:54;;;;;;;49.97;22.90;;;0.40;99.90;;;;;;5027124;28;20133;-65
2023/01/25 01:15:20;;;;;;;52.40;22.80;;;0.40;99.90;;;;;;5020643;28;20492;-65
2023/01/25 01:17:46;;;;;;;56.72;22.95;;;0.40;99.90;;;;;;5017767;28;20519;-65
2023/01/25 01:20:12;;;;;;;52.92;23.15;;;0.40;99.90;;;;;;5019066;28;20128;-65
2023/01/25 01:22:38;;;;;;;48.70;22.13;;;0.40;99.90;;;;;;5019595;28;20029;-66
2023/01/25 01:25:03;;;;;;;50.30;21.33;;;0.40;99.90;;;;;;5016184;28;20934;-65
2023/01/25 01:27:29;;;;;;;49.75;22.10;;;0.40;99.90;;;;;;5025466;28;20049;-65
2023/01/25 01:29:55;;;;;;;54.58;23.20;;;0.40;99.90;;;;;;5019419;28;20125;-65
2023/01/25 01:32:20;;;;;;;53.20;22.90;;;0.40;99.90;;;;;;5026773;28;20049;-65
2023/01/25 01:34:46;;;;;;;52.38;22.98;;;0.40;99.90;;;;;;5030812;28;20045;-65
2023/01/25 01:37:11;;;;;;;53.97;22.08;;;0.40;99.90;;;;;;5027914;28;20045;-65
2023/01/25 01:39:37;;;;;;;48.72;21.90;;;0.40;99.90;;;;;;5024005;28;20397;-65
2023/01/25 01:42:03;;;;;;;56.25;24.45;;;0.40;99.90;;;;;;5016890;28;20037;-65
2023/01/25 01:44:45;;;;;;;56.78;23.45;;;0.40;99.90;;;;;;5020989;28;20048;-65
2023/01/25 01:47:21;;;;;;;52.72;21.80;;;0.40;99.90;;;;;;5032809;28;20033;-65
2023/01/25 01:49:52;;;;;;;50.83;22.52;;;0.30;99.90;;;;;;5018132;28;20048;-65
2023/01/25 01:52:21;;;;;;;54.58;23.85;;;0.30;99.90;;;;;;5031521;28;20053;-65
2023/01/25 01:54:58;;;;;;;53.50;22.65;;;0.20;99.90;;;;;;5027033;28;20137;-65
2023/01/25 01:57:34;;;;;;;57.85;24.58;;;0.30;99.90;;;;;;5029500;28;20060;-65
2023/01/25 02:00:10;;;;;;;56.92;24.45;;;0.30;99.90;;;;;;5023737;28;20037;-65
2023/01/25 02:02:35;;;;;;;53.88;23.30;;;0.30;99.90;;;;;;5028041;28;20497;-65
2023/01/25 02:05:05;;;;;;;55.92;22.92;;;0.30;99.90;;;;;;5029005;28;20049;-65
2023/01/25 02:07:33;;;;;;;57.00;24.02;;;0.30;99.90;;;;;;5024695;28;20046;-65
2023/01/25 02:10:00;;;;;;;55.63;23.65;;;0.30;99.90;;;;;;5020639;28;20053;-65
2023/01/25 02:12:26;;;;;;;51.65;23.15;;;0.40;99.90;;;;;;5029949;28;20087;-65
2023/01/25 02:14:53;;;;;;;56.67;23.63;;;0.30;99.90;;;;;;5025488;28;20037;-65
2023/01/25 02:17:25;;;;;;;57.13;23.73;;;0.30;99.90;;;;;;5020922;28;20069;-65
2023/01/25 02:20:16;;;;;;;53.25;24.40;;;0.30;99.90;;;;;;5018288;28;20060;-65
2023/01/25 02:23:06;;;;;;;52.10;23.55;;;0.30;99.90;;;;;;5020556;28;20103;-65
2023/01/25 02:25:31;;;;;;;53.95;23.92;;;0.30;99.90;;;;;;5019231;28;20444;-65
2023/01/25 02:28:20;;;;;;;51.83;23.40;;;0.30;99.90;;;;;;5018030;28;20037;-66
2023/01/25 02:30:46;;;;;;;52.63;23.17;;;0.20;99.90;;;;;;5015523;28;20061;-65
2023/01/25 02:33:12;;;;;;;56.10;24.08;;;0.20;99.90;;;;;;5016132;28;20389;-65
2023/01/25 02:35:47;;;;;;;53.58;23.45;;;0.20;99.90;;;;;;5016547;28;20195;-65
2023/01/25 02:38:15;;;;;;;56.40;23.25;;;0.20;99.90;;;;;;5015841;28;20636;-65
2023/01/25 02:40:54;;;;;;;55.00;23.98;;;0.20;99.90;;;;;;5018207;28;20124;-65
2023/01/25 02:43:22;;;;;;;57.03;24.63;;;0.20;99.90;;;;;;5017586;28;20725;-65
2023/01/25 02:45:54;;;;;;;54.67;23.52;;;0.10;99.90;;;;;;5018893;28;20103;-65
2023/01/25 02:48:20;;;;;;;52.38;23.35;;;0.10;99.90;;;;;;5016368;28;20370;-65
2023/01/25 02:50:46;;;;;;;55.63;24.85;;;0.10;99.90;;;;;;5018395;28;20041;-65
2023/01/25 02:53:11;;;;;;;55.47;23.17;;;0.10;99.90;;;;;;5028012;28;20038;-65
2023/01/25 02:55:37;;;;;;;60.33;25.38;;;0.00;99.90;;;;;;5029853;28;20103;-65
2023/01/25 02:58:02;;;;;;;59.85;25.75;;;0.00;99.90;;;;;;5024734;28;20507;-65
2023/01/25 03:00:28;;;;;;;56.55;24.23;;;0.10;99.90;;;;;;5030796;28;20365;-66
2023/01/25 03:02:53;;;;;;;58.47;24.85;;;0.00;99.90;;;;;;5029742;28;20037;-66
2023/01/25 03:05:19;;;;;;;56.47;25.08;;;0.00;99.90;;;;;;5025494;28;20156;-66
2023/01/25 03:07:44;;;;;;;64.53;26.55;;;-0.10;99.90;;;;;;5029338;28;20415;-66
2023/01/25 03:10:10;;;;;;;59.13;25.50;;;-0.10;99.90;;;;;;5018363;28;20053;-66
2023/01/25 03:12:36;;;;;;;60.22;25.38;;;-0.10;99.90;;;;;;5024658;28;20183;-66
2023/01/25 03:15:01;;;;;;;63.85;26.80;;;-0.20;99.90;;;;;;5026853;28;20037;-66
2023/01/25 03:17:27;;;;;;;58.58;26.15;;;-0.10;99.90;;;;;;5028325;28;20037;-66
2023/01/25 03:19:52;;;;;;;64.88;28.08;;;-0.10;99.90;;;;;;5028764;28;20528;-66
2023/01/25 03:22:18;;;;;;;65.68;28.13;;;-0.10;99.90;;;;;;5021128;28;20042;-66
2023/01/25 03:24:44;;;;;;;64.18;26.55;;;-0.10;99.90;;;;;;5022335;28;20496;-66
2023/01/25 03:27:09;;;;;;;68.13;27.42;;;-0.10;99.90;;;;;;5017171;28;20509;-66
2023/01/25 03:29:36;;;;;;;59.80;26.65;;;-0.10;99.90;;;;;;5014426;28;20419;-66
2023/01/25 03:32:02;;;;;;;60.95;25.88;;;-0.10;99.90;;;;;;5016166;28;20385;-66
2023/01/25 03:34:27;;;;;;;63.00;25.95;;;-0.10;99.90;;;;;;5020164;28;20042;-66
2023/01/25 03:36:53;;;;;;;63.63;25.52;;;-0.10;99.90;;;;;;5019796;28;20474;-66
2023/01/25 03:39:19;;;;;;;61.33;26.40;;;-0.10;99.90;;;;;;5014001;28;20095;-66
2023/01/25 03:41:45;;;;;;;63.45;26.50;;;0.00;99.90;;;;;;5016750;28;22638;-67
2023/01/25 03:44:11;;;;;;;60.20;26.25;;;-0.10;99.90;;;;;;5015868;28;20052;-66
2023/01/25 03:46:38;;;;;;;60.35;25.58;;;-0.10;99.90;;;;;;5021532;28;20373;-66
2023/01/25 03:49:03;;;;;;;57.05;24.17;;;-0.10;99.90;;;;;;5017651;28;20045;-66
2023/01/25 03:51:29;;;;;;;58.63;25.15;;;-0.10;99.90;;;;;;5021553;28;20485;-66
2023/01/25 03:53:54;;;;;;;56.53;24.17;;;-0.10;99.90;;;;;;5019383;28;20041;-67
2023/01/25 03:56:23;;;;;;;62.10;24.52;;;-0.10;99.90;;;;;;5013835;28;20037;-66
2023/01/25 03:58:48;;;;;;;58.70;25.48;;;-0.10;99.90;;;;;;5013382;28;20436;-66
2023/01/25 04:01:33;;;;;;;62.75;25.35;;;-0.10;99.90;;;;;;5013653;28;20041;-66
2023/01/25 04:03:58;;;;;;;60.63;26.25;;;0.00;99.90;;;;;;5019077;28;20120;-66
2023/01/25 04:09:27;;;;;;;72.05;26.98;;;-0.10;99.90;;;;;;5018957;28;20122;-66
2023/01/25 04:11:52;;;;;;;63.05;26.08;;;-0.10;99.90;;;;;;5016769;28;20049;-66
2023/01/25 04:17:59;;;;;;;63.85;27.63;;;-0.10;99.90;;;;;;5014827;28;20041;-67
2023/01/25 04:21:02;;;;;;;67.43;28.55;;;-0.20;99.90;;;;;;5022172;28;20045;-66
2023/01/25 04:23:28;;;;;;;65.82;27.33;;;-0.10;99.90;;;;;;5022005;28;20040;-66
2023/01/25 04:25:59;;;;;;;64.18;27.80;;;-0.10;99.90;;;;;;5028235;28;20542;-66
2023/01/25 04:28:26;;;;;;;67.40;26.58;;;-0.10;99.90;;;;;;5026006;28;20073;-66
2023/01/25 04:30:53;;;;;;;66.93;26.65;;;-0.10;99.90;;;;;;5021610;28;20056;-66
2023/01/25 04:33:19;;;;;;;66.78;27.63;;;-0.10;99.90;;;;;;5028501;28;20037;-66
2023/01/25 04:35:44;;;;;;;72.45;29.65;;;-0.10;99.90;;;;;;5026756;28;20107;-66
2023/01/25 04:38:11;;;;;;;68.53;28.33;;;-0.10;99.90;;;;;;5025879;28;20100;-67
2023/01/25 04:40:37;;;;;;;72.85;28.38;;;-0.10;99.90;;;;;;5026022;28;20122;-66
2023/01/25 04:43:03;;;;;;;76.32;28.98;;;-0.10;99.90;;;;;;5029764;28;20036;-66
2023/01/25 04:45:28;;;;;;;72.80;31.02;;;-0.10;99.90;;;;;;5029048;28;20033;-66
2023/01/25 04:47:57;;;;;;;73.55;28.77;;;-0.10;99.90;;;;;;5027687;28;20037;-66
2023/01/25 04:50:22;;;;;;;71.63;27.88;;;-0.10;99.90;;;;;;5031272;28;20068;-66
2023/01/25 04:52:48;;;;;;;72.20;30.05;;;-0.10;99.90;;;;;;5026004;28;20571;-66
2023/01/25 04:55:14;;;;;;;68.85;29.30;;;0.00;99.90;;;;;;5026368;28;20041;-66
2023/01/25 04:57:40;;;;;;;64.53;28.15;;;-0.10;99.90;;;;;;5027824;28;20041;-66
2023/01/25 05:00:08;;;;;;;68.90;27.70;;;-0.10;99.90;;;;;;5023989;28;20045;-65
2023/01/25 05:02:33;;;;;;;67.45;27.52;;;-0.10;99.90;;;;;;5017455;28;20488;-66
2023/01/25 05:04:59;;;;;;;64.03;26.60;;;-0.20;99.90;;;;;;5030142;28;20037;-66
2023/01/25 05:07:24;;;;;;;68.18;27.00;;;-0.20;99.90;;;;;;5031593;28;20079;-66
2023/01/25 05:09:50;;;;;;;62.15;25.63;;;-0.10;99.90;;;;;;5029483;28;20087;-66
2023/01/25 05:12:15;;;;;;;65.57;27.15;;;-0.10;99.90;;;;;;5029270;28;20168;-66
2023/01/25 05:14:41;;;;;;;66.22;27.13;;;-0.20;99.90;;;;;;5021407;28;20052;-66
2023/01/25 05:17:07;;;;;;;66.18;27.02;;;-0.20;99.90;;;;;;5022002;28;20041;-66
2023/01/25 05:19:33;;;;;;;66.55;25.48;;;-0.20;99.90;;;;;;5030442;28;20060;-67
2023/01/25 05:21:59;;;;;;;66.25;26.38;;;-0.10;99.90;;;;;;5029924;28;20041;-66
2023/01/25 05:24:30;;;;;;;68.20;25.75;;;-0.20;99.90;;;;;;5025930;28;20041;-67
2023/01/25 05:27:04;;;;;;;;;;;-0.20;99.90;;;;;;5024082;28;20052;-66
2023/01/25 05:29:35;;;;;;;65.70;25.38;;;-0.20;99.90;;;;;;5025118;28;19971;-66
2023/01/25 05:32:10;;;;;;;65.80;25.67;;;-0.20;99.90;;;;;;5026394;28;20071;-66
2023/01/25 05:34:37;;;;;;;67.03;25.95;;;-0.20;99.90;;;;;;5007302;28;20045;-66
2023/01/25 05:37:03;;;;;;;66.47;26.65;;;-0.10;99.90;;;;;;5020846;28;20452;-66
2023/01/25 05:39:29;;;;;;;63.13;27.92;;;-0.10;99.90;;;;;;5024874;28;20041;-67
2023/01/25 05:41:55;;;;;;;65.72;28.17;;;-0.20;99.90;;;;;;5024299;28;20481;-66
2023/01/25 05:44:21;;;;;;;64.80;25.67;;;-0.20;99.90;;;;;;5021874;28;20044;-66
2023/01/25 05:46:47;;;;;;;68.07;27.52;;;-0.10;99.90;;;;;;5025069;28;20473;-66
2023/01/25 05:49:13;;;;;;;69.97;28.50;;;-0.10;99.90;;;;;;5029569;28;20068;-66
2023/01/25 05:51:38;;;;;;;71.15;27.48;;;-0.10;99.90;;;;;;5027863;28;20061;-66
2023/01/25 05:54:05;;;;;;;64.60;26.50;;;-0.10;99.90;;;;;;5024474;28;20049;-66
2023/01/25 05:56:32;;;;;;;62.30;25.73;;;-0.10;99.90;;;;;;5013992;28;20724;-66
2023/01/25 05:58:59;;;;;;;67.43;27.27;;;-0.10;99.90;;;;;;5026511;28;20116;-66
2023/01/25 06:01:26;;;;;;;62.10;25.85;;;-0.10;99.90;;;;;;5022804;28;20517;-66
2023/01/25 06:03:52;;;;;;;70.85;28.77;;;-0.10;99.90;;;;;;5026930;28;20651;-66
2023/01/25 06:06:18;;;;;;;61.97;25.25;;;-0.20;99.90;;;;;;5012056;28;20465;-66
2023/01/25 06:08:43;;;;;;;65.35;26.42;;;-0.20;99.90;;;;;;5024775;28;20053;-67
2023/01/25 06:11:11;;;;;;;68.45;26.83;;;-0.10;99.90;;;;;;5028409;28;20053;-66
2023/01/25 06:13:37;;;;;;;62.88;26.42;;;-0.10;99.90;;;;;;5029545;28;20049;-66
2023/01/25 06:16:03;;;;;;;63.65;25.80;;;-0.30;99.90;;;;;;5012716;28;20528;-66
2023/01/25 06:18:30;;;;;;;61.63;25.08;;;-0.20;99.90;;;;;;5016110;28;20531;-66
2023/01/25 06:20:56;;;;;;;63.72;25.45;;;-0.20;99.90;;;;;;5027838;28;20420;-65
2023/01/25 06:23:22;;;;;;;55.63;24.95;;;-0.10;99.90;;;;;;5028830;28;20501;-66
2023/01/25 06:25:48;;;;;;;50.47;22.73;;;-0.20;99.90;;;;;;5016660;28;20092;-66
2023/01/25 06:28:14;;;;;;;55.05;23.08;;;-0.30;99.90;;;;;;5010200;28;20115;-66
2023/01/25 06:30:39;;;;;;;52.00;21.48;;;-0.20;99.90;;;;;;5023456;28;20061;-66
2023/01/25 06:33:05;;;;;;;54.63;23.08;;;-0.20;99.90;;;;;;5025439;28;20079;-66
2023/01/25 06:35:32;;;;;;;54.92;22.58;;;-0.20;99.90;;;;;;5026706;28;20635;-66
2023/01/25 06:37:58;;;;;;;54.10;23.20;;;-0.20;99.90;;;;;;5026379;28;20088;-66
2023/01/25 06:40:25;;;;;;;55.03;24.08;;;-0.20;99.90;;;;;;5008940;28;20041;-66
2023/01/25 06:42:51;;;;;;;56.45;23.30;;;-0.20;99.90;;;;;;5011137;28;20052;-66
2023/01/25 06:45:17;;;;;;;49.33;22.15;;;-0.20;99.90;;;;;;5008013;28;20033;-66
2023/01/25 06:47:43;;;;;;;56.13;23.08;;;-0.20;99.90;;;;;;5027082;28;20036;-66
2023/01/25 06:50:09;;;;;;;55.95;23.70;;;-0.20;99.90;;;;;;5027643;28;20026;-66
2023/01/25 06:52:35;;;;;;;55.30;21.73;;;-0.20;99.90;;;;;;5027030;28;20117;-66
2023/01/25 06:55:02;;;;;;;53.15;23.02;;;-0.20;99.90;;;;;;5028130;28;20289;-66
2023/01/25 06:57:28;;;;;;;53.90;24.45;;;-0.20;99.90;;;;;;5045284;28;20068;-66
2023/01/25 06:59:54;;;;;;;58.28;23.63;;;-0.10;99.90;;;;;;5028599;28;20079;-66
2023/01/25 07:02:20;;;;;;;55.17;22.42;;;-0.20;99.90;;;;;;5029487;28;20039;-66
2023/01/25 07:04:45;;;;;;;56.45;22.95;;;-0.20;99.90;;;;;;5025041;28;20047;-66
2023/01/25 07:07:11;;;;;;;58.22;22.85;;;-0.30;99.90;;;;;;5016655;28;20524;-66
2023/01/25 07:09:37;;;;;;;51.00;21.55;;;-0.30;99.90;;;;;;5015061;28;20839;-66
2023/01/25 07:12:05;;;;;;;53.55;22.35;;;-0.30;99.90;;;;;;5028235;28;20057;-66
2023/01/25 07:14:31;;;;;;;58.08;23.98;;;-0.20;99.90;;;;;;5028503;28;20041;-66
2023/01/25 07:16:58;;;;;;;57.08;24.15;;;-0.30;99.90;;;;;;5022146;28;20091;-66
2023/01/25 07:19:23;;;;;;;52.25;22.45;;;-0.20;99.90;;;;;;5025766;28;20095;-66
2023/01/25 07:21:49;;;;;;;54.05;22.45;;;-0.20;99.90;;;;;;5026481;28;20469;-66
2023/01/25 07:24:17;;;;;;;57.50;23.00;;;-0.20;99.90;;;;;;5029696;28;20037;-66
2023/01/25 07:26:43;;;;;;;55.30;23.60;;;-0.20;99.90;;;;;;5029860;28;20046;-66
2023/01/25 07:29:12;;;;;;;60.65;24.70;;;-0.30;99.90;;;;;;5028857;28;20045;-66
2023/01/25 07:31:38;;;;;;;58.67;24.50;;;-0.40;99.90;;;;;;5027401;28;20037;-66
2023/01/25 07:34:04;;;;;;;58.67;23.67;;;-0.20;99.90;;;;;;5029973;28;20079;-66
2023/01/25 07:36:29;;;;;;;56.42;24.67;;;-0.30;99.90;;;;;;5026617;28;20033;-66
2023/01/25 07:38:56;;;;;;;62.85;25.50;;;-0.30;99.90;;;;;;5027170;28;20758;-66
2023/01/25 07:41:23;;;;;;;60.22;24.77;;;-0.40;99.90;;;;;;5029433;28;20053;-66
2023/01/25 07:43:49;;;;;;;61.90;24.35;;;-0.30;99.90;;;;;;5031435;28;20179;-66
2023/01/25 07:46:15;;;;;;;62.08;24.92;;;-0.30;99.90;;;;;;5027080;28;20556;-66
2023/01/25 07:48:48;;;;;;;60.72;24.63;;;-0.30;99.90;;;;;;5028923;28;20037;-67
2023/01/25 07:51:26;;;;;;;65.03;25.27;;;-0.20;99.90;;;;;;5027400;28;20508;-66
2023/01/25 07:53:54;;;;;;;62.67;26.00;;;-0.20;99.90;;;;;;5024157;28;20061;-66
2023/01/25 07:56:22;;;;;;;58.50;23.60;;;-0.20;99.90;;;;;;5026278;28;20041;-66
2023/01/25 07:58:47;;;;;;;60.63;25.35;;;-0.20;99.90;;;;;;5028541;28;20102;-66
2023/01/25 08:01:16;;;;;;;59.50;24.83;;;-0.20;99.90;;;;;;5023544;28;20462;-66
2023/01/25 08:03:43;;;;;;;59.70;25.05;;;-0.20;99.90;;;;;;5022599;28;20421;-66
2023/01/25 08:06:09;;;;;;;56.92;23.63;;;-0.20;99.90;;;;;;5017316;28;20037;-66
2023/01/25 08:08:41;;;;;;;67.40;25.98;;;-0.20;99.90;;;;;;5025044;28;20049;-66
2023/01/25 08:11:14;;;;;;;56.42;23.15;;;-0.10;99.90;;;;;;5025128;28;20046;-66
2023/01/25 08:13:40;;;;;;;56.55;24.23;;;-0.20;99.90;;;;;;5026643;28;20033;-66
2023/01/25 08:16:06;;;;;;;54.60;22.65;;;-0.20;99.90;;;;;;5025431;28;20037;-66
2023/01/25 08:18:32;;;;;;;62.65;24.13;;;-0.20;99.90;;;;;;5024017;28;20118;-66
2023/01/25 08:20:59;;;;;;;63.38;25.13;;;-0.30;99.90;;;;;;5028219;28;20052;-66
2023/01/25 08:23:26;;;;;;;63.63;25.23;;;-0.30;99.90;;;;;;5028565;28;20207;-66
2023/01/25 08:25:52;;;;;;;62.00;24.30;;;-0.30;99.90;;;;;;5023423;28;20053;-66
2023/01/25 08:28:17;;;;;;;59.35;24.55;;;-0.30;99.90;;;;;;5022877;28;20033;-66
2023/01/25 08:30:43;;;;;;;63.00;23.73;;;-0.30;99.90;;;;;;5027465;28;20120;-66
2023/01/25 08:33:09;;;;;;;61.15;24.95;;;-0.30;99.90;;;;;;5032162;28;20045;-66
2023/01/25 08:35:35;;;;;;;57.08;23.88;;;-0.30;99.90;;;;;;5027190;28;20049;-66
2023/01/25 08:38:02;;;;;;;62.63;26.10;;;-0.30;99.90;;;;;;5026697;28;20043;-66
2023/01/25 08:40:27;;;;;;;57.80;23.63;;;-0.30;99.90;;;;;;5023175;28;20033;-66
2023/01/25 08:42:53;;;;;;;66.95;25.85;;;-0.40;99.90;;;;;;5031036;28;20583;-66
2023/01/25 08:45:18;;;;;;;60.08;25.10;;;-0.20;99.90;;;;;;5026290;28;20068;-66
2023/01/25 08:47:44;;;;;;;61.42;24.75;;;-0.20;99.90;;;;;;5024986;28;20029;-66
2023/01/25 08:50:10;;;;;;;61.22;25.38;;;-0.20;99.90;;;;;;5026542;28;20037;-66
2023/01/25 08:52:35;;;;;;;67.75;26.42;;;-0.20;99.90;;;;;;5032462;28;20038;-66
2023/01/25 08:55:01;;;;;;;59.42;24.38;;;-0.20;99.90;;;;;;5031826;28;20841;-66
2023/01/25 08:57:26;;;;;;;57.67;23.35;;;-0.20;99.90;;;;;;5031377;28;20158;-66
2023/01/25 08:59:52;;;;;;;59.88;22.80;;;-0.20;99.90;;;;;;5028061;28;20060;-66
2023/01/25 09:02:20;;;;;;;60.28;25.60;;;-0.30;99.90;;;;;;5031328;28;20462;-66
2023/01/25 09:04:45;;;;;;;64.80;24.65;;;-0.20;99.90;;;;;;5033797;28;20045;-66
2023/01/25 09:07:11;;;;;;;61.95;25.73;;;-0.40;99.90;;;;;;5033448;28;20183;-67
2023/01/25 09:09:37;;;;;;;59.22;25.63;;;-0.30;99.90;;;;;;5030195;28;20491;-66
2023/01/25 09:12:02;;;;;;;56.58;23.52;;;-0.40;99.90;;;;;;5023463;28;20095;-66
2023/01/25 09:14:28;;;;;;;62.90;25.15;;;-0.40;99.90;;;;;;5028391;28;20235;-67
2023/01/25 09:16:53;;;;;;;62.65;25.88;;;-0.40;99.90;;;;;;5028205;28;20382;-66
2023/01/25 09:19:19;;;;;;;61.85;24.08;;;-0.40;99.90;;;;;;5019261;28;20489;-66
2023/01/25 09:21:45;;;;;;;60.75;24.92;;;-0.40;99.90;;;;;;5026466;28;20051;-66
2023/01/25 09:24:10;;;;;;;59.97;24.60;;;-0.30;99.90;;;;;;5022127;28;20064;-67
2023/01/25 09:26:39;;;;;;;63.60;25.50;;;-0.40;99.90;;;;;;5021181;28;20045;-66
2023/01/25 09:29:06;;;;;;;61.88;24.58;;;-0.30;99.90;;;;;;5027576;28;20404;-66
2023/01/25 09:31:32;;;;;;;60.97;23.90;;;-0.30;99.90;;;;;;5027695;28;20045;-66
2023/01/25 09:33:57;;;;;;;61.25;23.10;;;-0.40;99.90;;;;;;5030167;28;20042;-67
2023/01/25 09:36:23;;;;;;;60.20;23.77;;;-0.40;99.90;;;;;;5029148;28;20073;-67
2023/01/25 09:38:49;;;;;;;59.85;24.63;;;-0.40;99.90;;;;;;5028776;28;20124;-67
2023/01/25 09:41:43;;;;;;;54.88;22.10;;;-0.30;99.90;;;;;;5025249;28;20043;-66
2023/01/25 09:44:34;;;;;;;58.83;22.13;;;-0.40;99.90;;;;;;5018881;28;20045;-66
2023/01/25 09:47:22;;;;;;;;;;;-0.30;99.90;;;;;;5024318;28;20559;-66
2023/01/25 09:50:18;;;;;;;54.53;21.83;;;-0.20;99.90;;;;;;5014133;28;19917;-67
2023/01/25 09:53:03;;;;;;;57.60;21.88;;;-0.20;99.90;;;;;;5022961;28;20099;-66
2023/01/25 09:55:30;;;;;;;58.20;22.80;;;-0.20;99.90;;;;;;5022381;28;20113;-67
2023/01/25 09:58:00;;;;;;;57.15;23.08;;;-0.10;99.90;;;;;;5024812;28;20060;-66
2023/01/25 10:00:37;;;;;;;56.30;21.83;;;-0.10;99.90;;;;;;5025729;28;20039;-66
2023/01/25 10:03:13;;;;;;;58.50;23.10;;;0.00;99.90;;;;;;5008770;28;20052;-66
2023/01/25 10:05:44;;;;;;;61.30;23.48;;;0.00;99.90;;;;;;5024312;28;20041;-66
2023/01/25 10:08:15;;;;;;;56.78;22.58;;;0.00;99.90;;;;;;5022267;28;20053;-67
2023/01/25 10:10:45;;;;;;;63.58;25.00;;;0.10;99.90;;;;;;5024795;28;20053;-67
2023/01/25 10:13:12;;;;;;;60.47;24.10;;;0.10;99.90;;;;;;5016706;28;20128;-66
2023/01/25 10:15:42;;;;;;;54.40;21.65;;;-0.20;99.90;;;;;;5021340;28;20053;-66
2023/01/25 10:18:26;;;;;;;;;;;-0.30;99.90;;;;;;5021027;28;20405;-66
2023/01/25 10:21:06;;;;;;;57.90;23.17;;;-0.30;99.90;;;;;;5025284;28;20008;-66
2023/01/25 10:24:07;;;;;;;63.78;23.88;;;-0.40;99.90;;;;;;5025193;28;20057;-66
2023/01/25 10:26:35;;;;;;;56.22;22.27;;;-0.30;99.90;;;;;;5022582;28;20112;-66
2023/01/25 10:29:26;;;;;;;56.88;21.98;;;-0.20;99.90;;;;;;5021952;28;20071;-66
2023/01/25 10:32:09;;;;;;;54.58;20.40;;;-0.30;99.90;;;;;;5022517;28;20060;-66
2023/01/25 10:34:40;;;;;;;58.65;21.27;;;-0.30;99.90;;;;;;5022547;28;20041;-66
2023/01/25 10:37:18;;;;;;;59.15;22.40;;;-0.30;99.90;;;;;;5022837;28;20085;-66
2023/01/25 10:40:15;;;;;;;55.80;21.73;;;-0.20;99.90;;;;;;5024605;28;20485;-66
2023/01/25 10:42:52;;;;;;;60.92;22.45;;;-0.10;99.90;;;;;;5019405;28;20061;-66
2023/01/25 10:45:18;;;;;;;54.38;22.00;;;-0.10;99.90;;;;;;5024139;28;20053;-65
2023/01/25 10:47:53;;;;;;;59.67;24.20;;;-0.10;99.90;;;;;;5028287;28;20044;-66
2023/01/25 10:50:37;;;;;;;57.30;23.15;;;-0.20;99.90;;;;;;5028001;28;20041;-65
2023/01/25 10:53:03;;;;;;;59.00;23.15;;;-0.20;99.90;;;;;;5015235;28;20045;-65
2023/01/25 10:55:28;;;;;;;56.08;23.13;;;-0.10;99.90;;;;;;5029608;28;20064;-66
2023/01/25 10:57:56;;;;;;;53.58;22.27;;;-0.10;99.90;;;;;;5017846;28;20121;-66
2023/01/25 11:00:38;;;;;;;54.03;20.40;;;-0.10;99.90;;;;;;5024928;28;20495;-65
2023/01/25 11:03:05;;;;;;;52.17;20.15;;;-0.20;99.90;;;;;;5014346;28;20053;-66
2023/01/25 11:05:40;;;;;;;55.40;22.65;;;-0.10;99.90;;;;;;5010119;28;20121;-65
2023/01/25 11:08:33;;;;;;;61.10;23.98;;;-0.10;99.90;;;;;;5008877;28;20117;-66
2023/01/25 11:11:11;;;;;;;57.95;22.40;;;0.00;99.90;;;;;;5014573;28;20081;-65
2023/01/25 11:13:40;;;;;;;59.35;22.67;;;0.00;99.90;;;;;;5029634;28;20386;-66
2023/01/25 11:16:26;;;;;;;62.67;22.77;;;0.00;99.90;;;;;;5028033;28;20076;-66
2023/01/25 11:18:53;;;;;;;52.97;21.00;;;0.10;99.90;;;;;;5021236;28;20145;-65
2023/01/25 11:21:33;;;;;;;62.60;23.77;;;0.00;99.90;;;;;;5024416;28;20042;-65
2023/01/25 11:24:02;;;;;;;53.28;21.80;;;0.10;99.90;;;;;;5008723;28;20048;-65
2023/01/25 11:26:29;;;;;;;52.42;22.65;;;0.10;99.90;;;;;;5024613;28;20033;-66
2023/01/25 11:29:18;;;;;;;53.63;20.98;;;0.10;99.90;;;;;;5027213;28;20041;-66
2023/01/25 11:31:50;;;;;;;49.42;21.38;;;0.10;99.90;;;;;;5010758;28;20045;-66
2023/01/25 11:34:24;;;;;;;52.22;20.30;;;0.10;99.90;;;;;;5022390;28;20108;-66
2023/01/25 11:37:04;;;;;;;53.40;21.17;;;0.10;99.90;;;;;;5026005;28;20048;-66
2023/01/25 11:39:58;;;;;;;51.20;19.02;;;0.10;99.90;;;;;;5021541;28;20121;-66
2023/01/25 11:42:43;;;;;;;58.30;22.50;;;0.10;99.90;;;;;;5017381;28;20053;-66
2023/01/25 11:45:40;;;;;;;54.47;20.92;;;0.10;99.90;;;;;;5019554;28;20107;-66
2023/01/25 11:48:34;;;;;;;55.67;21.17;;;0.20;99.90;;;;;;5021602;28;20057;-66
2023/01/25 11:51:22;;;;;;;52.40;20.30;;;0.10;99.90;;;;;;5022737;28;20048;-66
2023/01/25 11:54:00;;;;;;;52.63;19.60;;;0.00;99.90;;;;;;5023101;28;20049;-66
2023/01/25 11:56:43;;;;;;;53.58;20.17;;;0.10;99.90;;;;;;5028439;28;20382;-66
2023/01/25 11:59:38;;;;;;;49.42;19.27;;;0.10;99.90;;;;;;5022335;28;20140;-66
2023/01/25 12:02:13;;;;;;;54.13;20.35;;;0.10;99.90;;;;;;5028246;28;20095;-66
2023/01/25 12:05:16;;;;;;;58.30;22.98;;;0.20;99.90;;;;;;5025193;28;20132;-66
2023/01/25 12:08:11;;;;;;;55.85;20.92;;;0.10;99.90;;;;;;5028752;28;20048;-66
2023/01/25 12:11:02;;;;;;;52.97;20.52;;;0.10;99.90;;;;;;5022776;28;20457;-67
2023/01/25 12:13:47;;;;;;;52.30;21.50;;;0.10;99.90;;;;;;5011078;28;20041;-66
2023/01/25 12:16:40;;;;;;;55.75;21.17;;;0.10;99.90;;;;;;4983016;28;20157;-66
2023/01/25 12:19:15;;;;;;;48.75;20.30;;;0.10;99.90;;;;;;5022794;28;20041;-66
2023/01/25 12:22:09;;;;;;;54.20;21.33;;;0.10;99.90;;;;;;5029925;28;20033;-66
2023/01/25 12:25:06;;;;;;;54.72;21.58;;;0.00;99.90;;;;;;5010689;28;20073;-66
2023/01/25 12:27:57;;;;;;;53.38;20.45;;;0.00;99.90;;;;;;5032442;28;20139;-66
2023/01/25 12:30:42;;;;;;;54.28;20.38;;;0.10;99.90;;;;;;5031933;28;20108;-66
2023/01/25 12:33:35;;;;;;;56.58;22.25;;;0.10;99.90;;;;;;5031656;28;20048;-67
2023/01/25 12:36:10;;;;;;;61.90;21.98;;;0.00;99.90;;;;;;5017047;28;20087;-66
2023/01/25 12:39:00;;;;;;;51.40;20.33;;;0.00;99.90;;;;;;5030838;28;20588;-66
2023/01/25 12:41:37;;;;;;;;;;;0.10;99.90;;;;;;5024544;28;20401;-66
2023/01/25 12:44:07;;;;;;;51.08;19.65;;;0.00;99.90;;;;;;5024676;28;19921;-66
2023/01/25 12:46:48;;;;;;;57.33;22.48;;;0.00;99.90;;;;;;5031862;28;20049;-66
2023/01/25 12:49:45;;;;;;;58.45;20.77;;;0.00;99.90;;;;;;5028981;28;20045;-66
2023/01/25 12:52:25;;;;;;;49.03;18.67;;;-0.10;99.90;;;;;;5031095;28;20107;-66
2023/01/25 12:54:54;;;;;;;51.55;19.10;;;-0.10;99.90;;;;;;5027984;28;20516;-66
2023/01/25 12:57:28;;;;;;;54.13;18.20;;;-0.10;99.90;;;;;;5030664;28;20088;-67